• Join FlightAware (Why Join?)
  • Login
  • US Flag 
10:34AM EDT


 

Airport Tracker/Info


-or-


 

Live Flight TrackerFlight Track Log ✈ SWA864 ✈ 20-Jul-2013 ✈ KFLL - KDEN

Flight Track Log - Related Links

Times and Time Zones

All times are in EDT time to prevent confusion due to time zone crossing. See the SWA864 flight status page for this flight to view local times or setup timezone preferences in your user account.

Time Position Orientation Groundspeed Altitude Reporting Facility
EDT Latitude Longitude Course Direction KTS MPH feet Rate Location/Type
09:23AM 26.1017 -80.0564 331° Northwest 244 281 3,400  Level Miami Center
09:24AM 26.1533 -80.0878 331° Northwest 290 334 4,400 900 Climbing Miami Center
09:25AM 26.2106 -80.1497 316° Northwest 285 328 5,100 1,500 Climbing Miami Center
09:26AM 26.2442 -80.2269 296° West 276 318 7,500 2,700 Climbing Miami Center
09:27AM 26.2567 -80.3200 279° West 318 366 10,500 2,340 Climbing Miami Center
09:28AM 26.2711 -80.4131 280° West 318 366 12,200 2,400 Climbing Miami Center
09:29AM 26.2889 -80.5364 279° West 354 407 15,400 2,760 Climbing Miami Center
09:30AM 26.3475 -80.6125 311° West 357 411 17,800 2,400 Climbing Miami Center
09:31AM 26.4433 -80.6989 321° Northwest 380 437 20,300 2,160 Climbing Miami Center
09:32AM 26.5333 -80.7739 323° Northwest 398 458 22,200 1,920 Climbing Miami Center
09:33AM 26.6192 -80.8442 324° Northwest 416 479 24,200 1,860 Climbing Miami Center
09:34AM 26.7150 -80.9264 323° Northwest 428 493 26,000 1,620 Climbing Miami Center
09:35AM 26.8169 -81.0136 323° Northwest 444 511 27,500 1,620 Climbing Miami Center
09:36AM 26.9272 -81.1039 324° Northwest 450 518 29,300 1,800 Climbing Miami Center
09:37AM 27.0269 -81.1889 323° Northwest 455 524 31,100 1,680 Climbing Miami Center
09:38AM 27.1244 -81.2742 322° Northwest 455 524 32,700 1,560 Climbing Miami Center
09:39AM 27.2242 -81.3575 323° Northwest 455 524 34,300 1,560 Climbing Miami Center
09:40AM 27.3239 -81.4431 323° Northwest 455 524 35,900 840 Climbing Miami Center
09:41AM 27.4214 -81.5289 322° Northwest 450 518 36,000  Climbing Miami Center
09:42AM 27.5186 -81.6125 323° Northwest 450 518 36,000  Level Miami Center
09:44AM 27.6964 -81.7631 323° Northwest 445 512 36,000  Level Jacksonville Center
09:45AM 27.7994 -81.8439 325° Northwest 445 512 36,000  Level Jacksonville Center
09:46AM 27.8856 -81.9253 320° Northwest 445 512 36,000  Level Jacksonville Center
09:47AM 27.9864 -82.0111 323° Northwest 445 512 36,000  Level Jacksonville Center
09:48AM 28.0786 -82.0997 320° Northwest 445 512 36,000  Level Jacksonville Center
09:49AM 28.1731 -82.1908 320° Northwest 445 512 36,000  Level Jacksonville Center
09:50AM 28.2675 -82.2844 319° Northwest 445 512 36,000  Level Jacksonville Center
09:51AM 28.3617 -82.3736 320° Northwest 445 512 36,000  Level Jacksonville Center
09:52AM 28.4561 -82.4675 319° Northwest 439 505 36,000  Level Jacksonville Center
09:53AM 28.5503 -82.5594 319° Northwest 439 505 36,000  Level Jacksonville Center
09:54AM 28.6464 -82.6514 320° Northwest 439 505 36,000  Level Jacksonville Center
09:55AM 28.7383 -82.7411 319° Northwest 434 499 36,000  Level Jacksonville Center
09:56AM 28.8322 -82.8358 319° Northwest 439 505 36,000  Level Jacksonville Center
09:57AM 28.9242 -82.9233 320° Northwest 439 505 36,000  Level Jacksonville Center
09:58AM 29.0181 -83.0161 319° Northwest 439 505 36,000  Level Jacksonville Center
09:59AM 29.1119 -83.1089 319° Northwest 439 505 36,000  Level Jacksonville Center
10:00AM 29.2056 -83.2019 319° Northwest 439 505 36,000  Level Jacksonville Center
10:01AM 29.2972 -83.2925 319° Northwest 439 505 36,000  Level Jacksonville Center
10:02AM 29.3886 -83.3858 318° Northwest 439 505 36,000  Level Jacksonville Center
10:03AM 29.4906 -83.4867 319° Northwest 439 505 36,000  Level Jacksonville Center
10:04AM 29.5842 -83.5828 318° Northwest 439 505 36,000  Level Jacksonville Center
10:05AM 29.6775 -83.6767 319° Northwest 439 505 36,000  Level Jacksonville Center
10:06AM 29.7728 -83.7683 320° Northwest 439 505 36,000  Level Jacksonville Center
10:07AM 29.8661 -83.8650 318° Northwest 444 511 36,000  Level Jacksonville Center
10:08AM 29.9614 -83.9569 320° Northwest 444 511 36,000  Level Jacksonville Center
10:09AM 30.0567 -84.0542 319° Northwest 444 511 36,000  Level Jacksonville Center
10:10AM 30.1497 -84.1489 319° Northwest 444 511 36,000  Level Jacksonville Center
10:11AM 30.2303 -84.2317 318° Northwest 439 505 36,000  Level Jacksonville Center
10:12AM 30.3253 -84.3292 318° Northwest 444 511 36,000  Level Jacksonville Center
10:13AM 30.4203 -84.4247 319° Northwest 444 511 36,000 600 Level Jacksonville Center
10:14AM 30.5108 -84.5200 318° Northwest 444 511 37,200 960 Climbing Jacksonville Center
10:15AM 30.6078 -84.6158 320° Northwest 444 511 38,000 360 Climbing Jacksonville Center
10:16AM 30.7067 -84.7094 321° Northwest 444 511 38,000  Level Jacksonville Center
10:17AM 30.8181 -84.7986 326° Northwest 449 517 38,000  Level Jacksonville Center
10:18AM 30.9131 -84.8708 327° Northwest 449 517 38,000  Level Jacksonville Center
10:19AM 31.0119 -84.9481 326° Northwest 449 517 38,000  Level Jacksonville Center
10:20AM 31.1169 -85.0353 325° Northwest 444 511 38,000  Level Jacksonville Center
10:21AM 31.2222 -85.1178 326° Northwest 449 517 38,000  Level Jacksonville Center
10:22AM 31.3314 -85.1983 328° Northwest 449 517 38,000  Level Jacksonville Center
10:24AM 31.5636 -85.4158 321° Northwest 449 517 38,000  Level Atlanta Center
10:25AM 31.6606 -85.5100 320° Northwest 449 517 38,000  Level Atlanta Center
10:26AM 31.7556 -85.6044 320° Northwest 455 524 38,000  Level Atlanta Center
10:27AM 31.8522 -85.6992 320° Northwest 455 524 38,000  Level Atlanta Center
10:28AM 31.9533 -85.7989 320° Northwest 455 524 38,000  Level Atlanta Center
10:29AM 32.0478 -85.8939 320° Northwest 455 524 38,000  Level Atlanta Center
10:30AM 32.1425 -85.9914 319° Northwest 455 524 38,000  Level Atlanta Center
10:31AM 32.2389 -86.0844 321° Northwest 455 524 38,000  Level Atlanta Center
10:32AM 32.3417 -86.1778 323° Northwest 460 529 38,000  Level Atlanta Center
10:33AM 32.4381 -86.2783 319° Northwest 460 529 38,000  Level Atlanta Center
10:34AM 32.5128 -86.4183 302° West 449 517 38,000  Level Atlanta Center
10:35AM 32.5664 -86.5528 295° West 454 522 38,000  Level Atlanta Center
10:36AM 32.6200 -86.6825 296° West 454 522 38,000  Level Atlanta Center
10:37AM 32.6733 -86.8222 294° West 454 522 38,000  Level Atlanta Center
10:38AM 32.7286 -86.9550 296° West 449 517 38,000  Level Atlanta Center
10:39AM 32.7797 -87.0900 294° West 449 517 38,000  Level Atlanta Center
10:40AM 32.8369 -87.2181 298° West 449 517 38,000  Level Atlanta Center
10:41AM 32.8917 -87.3561 295° West 449 517 38,000  Level Atlanta Center
10:42AM 32.9422 -87.4917 294° West 444 511 38,000  Level Atlanta Center
10:44AM 33.0081 -87.6694 294° West 455 524 38,000  Level Memphis Center
10:45AM 33.0633 -87.8067 296° West 455 524 38,000  Level Memphis Center
10:46AM 33.1161 -87.9414 295° West 455 524 38,000  Level Memphis Center
10:47AM 33.1708 -88.0789 295° West 455 524 38,000  Level Memphis Center
10:48AM 33.2297 -88.2214 296° West 460 529 38,000  Level Memphis Center
10:49AM 33.2800 -88.3569 294° West 460 529 38,000  Level Memphis Center
10:50AM 33.3342 -88.4925 296° West 460 529 38,000  Level Memphis Center
10:51AM 33.3883 -88.6306 295° West 460 529 38,000  Level Memphis Center
10:52AM 33.4403 -88.7689 294° West 455 524 38,000  Level Memphis Center
10:53AM 33.4900 -88.8950 295° West 460 529 38,000  Level Memphis Center
10:54AM 33.5436 -89.0361 295° West 454 522 38,000  Level Memphis Center
10:55AM 33.5953 -89.1775 294° West 459 528 38,000  Level Memphis Center
10:56AM 33.6486 -89.3217 294° West 459 528 38,000  Level Memphis Center
10:57AM 33.6997 -89.4608 294° West 459 528 38,000  Level Memphis Center
10:58AM 33.7550 -89.6028 295° West 459 528 38,000  Level Memphis Center
10:59AM 33.8081 -89.7472 294° West 459 528 38,000  Level Memphis Center
11:00AM 33.8631 -89.9019 293° West 459 528 38,000  Level Memphis Center
11:01AM 33.9156 -90.0442 294° West 465 535 38,000  Level Memphis Center
11:02AM 33.9681 -90.1944 293° West 470 541 38,000  Level Memphis Center
11:03AM 34.0161 -90.3222 294° West 470 541 38,000  Level Memphis Center
11:04AM 34.0683 -90.4675 293° West 476 548 38,000  Level Memphis Center
11:05AM 34.1203 -90.6131 293° West 476 548 38,000  Level Memphis Center
11:06AM 34.1742 -90.7564 294° West 476 548 38,000  Level Memphis Center
11:07AM 34.2300 -90.9147 293° West 476 548 38,000  Level Memphis Center
11:08AM 34.2833 -91.0611 294° West 471 542 38,000  Level Memphis Center
11:09AM 34.3347 -91.2047 293° West 476 548 38,000  Level Memphis Center
11:10AM 34.3858 -91.3514 293° West 470 541 38,000  Level Memphis Center
11:11AM 34.4389 -91.4928 294° West 470 541 38,000  Level Memphis Center
11:12AM 34.4897 -91.6422 292° West 478 550 38,000  Level Memphis Center
11:13AM 34.5342 -91.7689 293° West 465 535 38,000  Level Memphis Center
11:14AM 34.5825 -91.9136 292° West 460 529 38,000  Level Memphis Center
11:15AM 34.6033 -92.0703 279° West 460 529 38,000  Level Memphis Center
11:16AM 34.6219 -92.2272 278° West 465 535 38,000  Level Memphis Center
11:17AM 34.6425 -92.3817 279° West 465 535 38,000  Level Memphis Center
11:18AM 34.6608 -92.5361 278° West 465 535 38,000  Level Memphis Center
11:19AM 34.6786 -92.7058 277° West 465 535 38,000  Level Memphis Center
11:20AM 34.6964 -92.8628 278° West 465 535 38,000  Level Memphis Center
11:21AM 34.7119 -93.0200 277° West 465 535 38,000  Level Memphis Center
11:22AM 34.7272 -93.1744 277° West 465 535 38,000  Level Memphis Center
11:23AM 34.7447 -93.3292 278° West 465 535 38,000  Level Memphis Center
11:24AM 34.7636 -93.4867 278° West 465 535 38,000  Level Memphis Center
11:25AM 34.7786 -93.6414 277° West 465 535 38,000  Level Memphis Center
11:26AM 34.8078 -93.7944 283° West 465 535 38,000  Level Memphis Center
11:27AM 34.8367 -93.9525 283° West 472 543 38,000  Level Memphis Center
11:28AM 34.8656 -94.1056 283° West 472 543 38,000  Level Memphis Center
11:29AM 34.8964 -94.2536 284° West 472 543 38,000  Level Memphis Center
11:30AM 34.9419 -94.4003 291° West 472 543 38,000  Level Memphis Center
11:31AM 35.0492 -94.5908 305° West 514 592 38,000  Level Fort Worth Center
11:32AM 35.1289 -94.7075 310° West 480 552 38,000  Level Fort Worth Center
11:33AM 35.2106 -94.8244 311° West 461 531 38,000  Level Fort Worth Center
11:34AM 35.2881 -94.9467 308° West 456 525 38,000  Level Fort Worth Center
11:35AM 35.3675 -95.0614 310° West 451 519 38,000  Level Fort Worth Center
11:36AM 35.4158 -95.1331 310° West 445 512 38,000  Level Kansas City Center
11:37AM 35.4947 -95.2500 310° West 444 511 38,000  Level Kansas City Center
11:38AM 35.5725 -95.3647 310° West 441 507 38,000  Level Kansas City Center
11:39AM 35.6511 -95.4800 310° West 438 504 38,000  Level Kansas City Center
11:40AM 35.7444 -95.6208 309° West 439 505 38,000  Level Kansas City Center
11:41AM 35.8219 -95.7378 309° West 438 504 38,000  Level Kansas City Center
11:42AM 35.9008 -95.8539 310° West 438 504 38,000  Level Kansas City Center
11:43AM 35.9950 -95.9506 320° Northwest 437 503 38,000  Level Kansas City Center
11:44AM 36.0878 -96.0472 320° Northwest 434 499 38,000  Level Kansas City Center
11:45AM 36.1806 -96.1431 320° Northwest 433 498 38,000  Level Kansas City Center
11:46AM 36.2739 -96.2378 321° Northwest 430 495 38,000  Level Kansas City Center
11:47AM 36.3661 -96.3294 321° Northwest 426 490 38,000  Level Kansas City Center
11:48AM 36.4769 -96.4411 321° Northwest 425 489 38,000  Level Kansas City Center
11:49AM 36.5592 -96.5469 314° West 424 488 38,000  Level Kansas City Center
11:50AM 36.6383 -96.6561 312° West 425 489 38,000  Level Kansas City Center
11:51AM 36.7056 -96.7767 305° West 426 490 38,000  Level Kansas City Center
11:52AM 36.7542 -96.9158 294° West 434 499 38,000  Level Kansas City Center
11:53AM 36.8017 -97.0528 293° West 433 498 38,000  Level Kansas City Center
11:55AM 36.8500 -97.1922 293° West 431 496 38,000  Level Kansas City Center
11:56AM 36.8953 -97.3328 292° West 433 498 38,000  Level Kansas City Center
11:57AM 36.9408 -97.4725 292° West 433 498 38,000  Level Kansas City Center
11:58AM 36.9958 -97.6367 293° West 430 495 38,000  Level Kansas City Center
11:59AM 37.0431 -97.7731 293° West 428 493 38,000  Level Kansas City Center
12:00PM 37.0875 -97.9111 292° West 427 491 38,000  Level Kansas City Center
12:01PM 37.1328 -98.0467 293° West 424 488 38,000  Level Kansas City Center
12:02PM 37.1783 -98.1822 293° West 423 487 38,000  Level Kansas City Center
12:03PM 37.2231 -98.3186 292° West 422 486 38,000  Level Kansas City Center
12:04PM 37.2678 -98.4547 292° West 420 483 38,000  Level Kansas City Center
12:05PM 37.3219 -98.6214 292° West 425 489 38,000  Level Kansas City Center
12:06PM 37.3664 -98.7572 292° West 422 486 38,000  Level Kansas City Center
12:07PM 37.4094 -98.8942 292° West 420 483 38,000  Level Kansas City Center
12:08PM 37.4544 -99.0314 292° West 422 486 38,000  Level Kansas City Center
12:09PM 37.4961 -99.1658 291° West 416 479 38,000  Level Kansas City Center
12:10PM 37.5400 -99.3033 292° West 419 482 38,000 -300 Level Kansas City Center
12:11PM 37.5831 -99.4383 292° West 417 480 37,400 -900 Descending Kansas City Center
12:12PM 37.6314 -99.5914 292° West 419 482 36,300 -720 Descending Kansas City Center
12:13PM 37.6792 -99.7461 291° West 424 488 36,000 -180 Descending Kansas City Center
12:14PM 37.7206 -99.8761 292° West 421 484 36,000  Level Kansas City Center
12:15PM 37.7675 -100.0281 291° West 417 480 36,000  Level Kansas City Center
12:16PM 37.8078 -100.1592 291° West 418 481 36,000  Level Kansas City Center
12:17PM 37.8542 -100.3092 291° West 414 476 36,000  Level Kansas City Center
12:18PM 37.8939 -100.4397 291° West 415 478 36,000  Level Kansas City Center
12:19PM 37.9403 -100.5911 291° West 416 479 36,000  Level Kansas City Center
12:20PM 37.9797 -100.7206 291° West 415 478 36,000  Level Kansas City Center
12:21PM 38.0247 -100.8725 291° West 415 478 36,000  Level Kansas City Center
12:22PM 38.0639 -101.0044 291° West 419 482 36,000  Level Kansas City Center
12:23PM 38.1086 -101.1578 290° West 418 481 36,000  Level Kansas City Center
12:25PM 38.1469 -101.2889 290° West 416 479 36,000  Level Kansas City Center
12:25PM 38.1736 -101.3742 292° West 414 476 36,000  Level Denver Center
12:26PM 38.2306 -101.5186 297° West 412 474 36,000 -60 Level Denver Center
12:27PM 38.3089 -101.6756 302° West 412 474 35,900 -480 Descending Denver Center
12:28PM 38.3675 -101.7922 303° West 410 472 35,000 -960 Descending Denver Center
12:29PM 38.4225 -101.9392 296° West 412 474 34,000 -540 Descending Denver Center
12:31PM 38.4567 -102.0719 288° West 411 473 34,000  Level Denver Center
12:32PM 38.4961 -102.2264 288° West 411 473 34,000 -60 Level Denver Center
12:33PM 38.5300 -102.3575 288° West 407 468 33,900 -600 Descending Denver Center
12:34PM 38.5686 -102.5108 288° West 407 468 32,800 -1,020 Descending Denver Center
12:35PM 38.6022 -102.6433 288° West 410 472 31,800 -900 Descending Denver Center
12:36PM 38.6406 -102.7931 288° West 415 478 31,000 -540 Descending Denver Center
12:37PM 38.6744 -102.9322 287° West 410 472 30,700 -660 Descending Denver Center
12:38PM 38.7083 -103.0650 288° West 397 457 29,700 -960 Descending Denver Center
12:39PM 38.7417 -103.1969 288° West 390 449 28,700 -960 Descending Denver Center
12:40PM 38.7731 -103.3303 287° West 391 450 27,700 -840 Descending Denver Center
12:41PM 38.8114 -103.4742 289° West 388 447 27,000 -720 Descending Denver Center
12:42PM 38.8700 -103.5681 309° West 381 438 26,300 -960 Descending Denver Center
12:43PM 38.9547 -103.6881 312° West 379 436 25,100 -1,080 Descending Denver Center
12:44PM 39.0233 -103.7850 312° West 369 425 24,100 -1,020 Descending Denver Center
12:45PM 39.0922 -103.8825 312° West 368 423 23,100 -780 Descending Denver Center
12:46PM 39.1614 -103.9819 312° West 373 429 22,500 -900 Descending Denver Center
12:47PM 39.2456 -104.1042 312° West 380 437 21,300 -1,260 Descending Denver Center
12:48PM 39.3225 -104.1778 324° Northwest 342 394 20,000 -1,440 Descending Denver Center
12:49PM 39.4011 -104.2400 329° Northwest 333 383 18,400 -1,380 Descending Denver Center
12:50PM 39.4792 -104.3050 327° Northwest 311 358 17,000 -720 Descending Denver Center
12:51PM 39.5678 -104.3769 328° Northwest 305 351 16,800 -360 Descending Denver Center
12:52PM 39.6314 -104.4292 328° Northwest 270 311 16,300 -1,080 Descending Denver Center
12:53PM 39.6953 -104.4819 328° Northwest 255 293 14,600 -1,620 Descending Denver Center
12:55PM 39.7583 -104.5225 334° Northwest 251 289 13,000 -1,320 Descending Denver Center
12:56PM 39.8183 -104.5217 North 254 292 12,000 -1,020 Descending Denver Center
12:57PM 39.9042 -104.5219 360° North 253 291 11,000 -540 Descending Denver Center
12:58PM 39.9783 -104.5208 North 249 287 10,900 -540 Descending Denver Center
12:59PM 40.0489 -104.5172 North 254 292 9,900 -1,020 Descending Denver Center
01:00PM 40.0922 -104.5708 317° Northwest 241 277 8,900 -1,020 Descending Denver Center
01:01PM 40.0539 -104.6308 230° Southwest 221 254 7,800 -960 Descending Denver Center
01:02PM 39.9969 -104.6756 211° Southwest 222 255 7,000 -780 Descending Denver Center
01:03PM 39.9461 -104.6867 190° South 189 217 6,200 -780 Descending Denver Center
01:04PM 39.8978 -104.6869 180° South 164 189 5,400 -780 Descending Denver Center
01:06PM 39.8617 -104.6732 North  Level Estimated
01:13PM 39.8617 -104.6732 North  Level Estimated
01:14PM 39.8617 -104.6732 North  Level Estimated
01:15PM 39.8617 -104.6732 North  Level Estimated